sensor_id;sensor_type;location;lat;lon;timestamp;P1;durP1;ratioP1;P2;durP2;ratioP2
9823;SDS011;4951;50.778;7.196;2022-09-29T00:01:09;7.30;;;4.80;;
9823;SDS011;4951;50.778;7.196;2022-09-29T00:03:37;8.40;;;6.27;;
9823;SDS011;4951;50.778;7.196;2022-09-29T00:06:10;8.07;;;6.17;;
9823;SDS011;4951;50.778;7.196;2022-09-29T00:08:40;7.23;;;6.53;;
9823;SDS011;4951;50.778;7.196;2022-09-29T00:11:13;7.17;;;5.10;;
9823;SDS011;4951;50.778;7.196;2022-09-29T00:13:42;5.80;;;5.20;;
9823;SDS011;4951;50.778;7.196;2022-09-29T00:16:10;6.90;;;6.20;;
9823;SDS011;4951;50.778;7.196;2022-09-29T00:18:38;5.63;;;4.77;;
9823;SDS011;4951;50.778;7.196;2022-09-29T00:21:06;5.57;;;3.83;;
9823;SDS011;4951;50.778;7.196;2022-09-29T00:23:35;6.77;;;5.07;;
9823;SDS011;4951;50.778;7.196;2022-09-29T00:26:03;6.07;;;4.20;;
9823;SDS011;4951;50.778;7.196;2022-09-29T00:28:35;5.30;;;4.30;;
9823;SDS011;4951;50.778;7.196;2022-09-29T00:31:05;6.57;;;4.77;;
9823;SDS011;4951;50.778;7.196;2022-09-29T00:33:34;6.50;;;5.90;;
9823;SDS011;4951;50.778;7.196;2022-09-29T00:36:03;5.87;;;4.97;;
9823;SDS011;4951;50.778;7.196;2022-09-29T00:38:32;5.47;;;4.97;;
9823;SDS011;4951;50.778;7.196;2022-09-29T00:41:00;5.90;;;4.43;;
9823;SDS011;4951;50.778;7.196;2022-09-29T00:46:23;9.07;;;4.87;;
9823;SDS011;4951;50.778;7.196;2022-09-29T00:48:58;6.07;;;5.57;;
9823;SDS011;4951;50.778;7.196;2022-09-29T00:51:28;8.23;;;7.07;;
9823;SDS011;4951;50.778;7.196;2022-09-29T00:54:09;5.47;;;4.73;;
9823;SDS011;4951;50.778;7.196;2022-09-29T00:56:37;5.97;;;5.37;;
9823;SDS011;4951;50.778;7.196;2022-09-29T00:59:10;10.97;;;7.93;;
9823;SDS011;4951;50.778;7.196;2022-09-29T01:01:43;8.33;;;6.27;;
9823;SDS011;4951;50.778;7.196;2022-09-29T01:04:11;8.47;;;7.60;;
9823;SDS011;4951;50.778;7.196;2022-09-29T01:06:43;6.37;;;5.43;;
9823;SDS011;4951;50.778;7.196;2022-09-29T01:09:15;7.57;;;6.23;;
9823;SDS011;4951;50.778;7.196;2022-09-29T01:11:47;10.47;;;8.47;;
9823;SDS011;4951;50.778;7.196;2022-09-29T01:14:18;5.83;;;4.93;;
9823;SDS011;4951;50.778;7.196;2022-09-29T01:16:47;8.70;;;6.60;;
9823;SDS011;4951;50.778;7.196;2022-09-29T01:19:15;7.43;;;6.70;;
9823;SDS011;4951;50.778;7.196;2022-09-29T01:21:50;8.50;;;7.73;;
9823;SDS011;4951;50.778;7.196;2022-09-29T01:27:23;4.40;;;4.00;;
9823;SDS011;4951;50.778;7.196;2022-09-29T01:30:09;4.90;;;4.40;;
9823;SDS011;4951;50.778;7.196;2022-09-29T01:35:36;6.63;;;4.60;;
9823;SDS011;4951;50.778;7.196;2022-09-29T01:38:14;4.60;;;4.20;;
9823;SDS011;4951;50.778;7.196;2022-09-29T01:40:55;4.80;;;4.30;;
9823;SDS011;4951;50.778;7.196;2022-09-29T01:43:30;6.37;;;5.73;;
9823;SDS011;4951;50.778;7.196;2022-09-29T01:46:00;3.57;;;3.23;;
9823;SDS011;4951;50.778;7.196;2022-09-29T01:48:35;7.30;;;6.70;;
9823;SDS011;4951;50.778;7.196;2022-09-29T01:51:08;6.33;;;5.53;;
9823;SDS011;4951;50.778;7.196;2022-09-29T01:53:42;6.90;;;6.10;;
9823;SDS011;4951;50.778;7.196;2022-09-29T01:56:15;4.57;;;4.17;;
9823;SDS011;4951;50.778;7.196;2022-09-29T01:58:48;6.97;;;6.33;;
9823;SDS011;4951;50.778;7.196;2022-09-29T02:01:20;7.67;;;5.77;;
9823;SDS011;4951;50.778;7.196;2022-09-29T02:03:52;6.60;;;5.97;;
9823;SDS011;4951;50.778;7.196;2022-09-29T02:06:28;7.23;;;6.53;;
9823;SDS011;4951;50.778;7.196;2022-09-29T02:09:01;6.17;;;5.57;;
9823;SDS011;4951;50.778;7.196;2022-09-29T02:11:30;5.73;;;5.23;;
9823;SDS011;4951;50.778;7.196;2022-09-29T02:14:00;5.30;;;4.80;;
9823;SDS011;4951;50.778;7.196;2022-09-29T02:16:34;6.43;;;5.83;;
9823;SDS011;4951;50.778;7.196;2022-09-29T02:19:06;7.93;;;7.23;;
9823;SDS011;4951;50.778;7.196;2022-09-29T02:21:39;5.57;;;5.07;;
9823;SDS011;4951;50.778;7.196;2022-09-29T02:24:07;7.50;;;5.93;;
9823;SDS011;4951;50.778;7.196;2022-09-29T02:26:34;6.80;;;6.10;;
9823;SDS011;4951;50.778;7.196;2022-09-29T02:29:02;9.33;;;7.77;;
9823;SDS011;4951;50.778;7.196;2022-09-29T02:31:31;7.60;;;6.27;;
9823;SDS011;4951;50.778;7.196;2022-09-29T02:33:59;9.90;;;8.90;;
9823;SDS011;4951;50.778;7.196;2022-09-29T02:36:30;11.93;;;8.17;;
9823;SDS011;4951;50.778;7.196;2022-09-29T02:39:07;15.97;;;9.50;;
9823;SDS011;4951;50.778;7.196;2022-09-29T02:41:44;9.80;;;6.90;;
9823;SDS011;4951;50.778;7.196;2022-09-29T02:44:24;12.07;;;7.03;;
9823;SDS011;4951;50.778;7.196;2022-09-29T02:47:15;15.90;;;9.03;;
9823;SDS011;4951;50.778;7.196;2022-09-29T02:52:52;8.87;;;6.83;;
9823;SDS011;4951;50.778;7.196;2022-09-29T02:55:24;22.60;;;9.90;;
9823;SDS011;4951;50.778;7.196;2022-09-29T02:57:59;11.73;;;7.50;;
9823;SDS011;4951;50.778;7.196;2022-09-29T03:00:32;16.00;;;8.77;;
9823;SDS011;4951;50.778;7.196;2022-09-29T03:03:01;18.60;;;9.57;;
9823;SDS011;4951;50.778;7.196;2022-09-29T03:05:28;12.03;;;9.57;;
9823;SDS011;4951;50.778;7.196;2022-09-29T03:07:58;29.57;;;12.07;;
9823;SDS011;4951;50.778;7.196;2022-09-29T03:10:26;22.70;;;11.73;;
9823;SDS011;4951;50.778;7.196;2022-09-29T03:12:53;14.97;;;10.73;;
9823;SDS011;4951;50.778;7.196;2022-09-29T03:15:20;15.93;;;8.83;;
9823;SDS011;4951;50.778;7.196;2022-09-29T03:17:48;10.10;;;6.90;;
9823;SDS011;4951;50.778;7.196;2022-09-29T03:20:15;13.20;;;8.30;;
9823;SDS011;4951;50.778;7.196;2022-09-29T03:22:42;12.27;;;9.13;;
9823;SDS011;4951;50.778;7.196;2022-09-29T03:25:11;9.83;;;7.90;;
9823;SDS011;4951;50.778;7.196;2022-09-29T03:27:40;17.60;;;10.20;;
9823;SDS011;4951;50.778;7.196;2022-09-29T03:30:08;10.77;;;8.27;;
9823;SDS011;4951;50.778;7.196;2022-09-29T03:32:39;17.57;;;8.47;;
9823;SDS011;4951;50.778;7.196;2022-09-29T03:35:08;10.73;;;8.10;;
9823;SDS011;4951;50.778;7.196;2022-09-29T03:37:35;21.27;;;9.30;;
9823;SDS011;4951;50.778;7.196;2022-09-29T03:40:03;13.47;;;8.67;;
9823;SDS011;4951;50.778;7.196;2022-09-29T03:42:32;16.73;;;7.67;;
9823;SDS011;4951;50.778;7.196;2022-09-29T03:44:59;14.30;;;9.37;;
9823;SDS011;4951;50.778;7.196;2022-09-29T03:47:26;10.13;;;7.60;;
9823;SDS011;4951;50.778;7.196;2022-09-29T03:49:53;11.17;;;9.00;;
9823;SDS011;4951;50.778;7.196;2022-09-29T03:52:20;11.60;;;8.67;;
9823;SDS011;4951;50.778;7.196;2022-09-29T03:54:47;11.57;;;9.57;;
9823;SDS011;4951;50.778;7.196;2022-09-29T03:57:14;17.43;;;8.30;;
9823;SDS011;4951;50.778;7.196;2022-09-29T03:59:43;30.33;;;9.80;;
9823;SDS011;4951;50.778;7.196;2022-09-29T04:02:10;18.80;;;8.37;;
9823;SDS011;4951;50.778;7.196;2022-09-29T04:04:37;9.10;;;7.80;;
9823;SDS011;4951;50.778;7.196;2022-09-29T04:07:04;7.50;;;6.80;;
9823;SDS011;4951;50.778;7.196;2022-09-29T04:09:32;7.67;;;6.87;;
9823;SDS011;4951;50.778;7.196;2022-09-29T04:12:00;7.60;;;6.30;;
9823;SDS011;4951;50.778;7.196;2022-09-29T04:14:27;8.00;;;7.30;;
9823;SDS011;4951;50.778;7.196;2022-09-29T04:16:56;9.40;;;7.53;;
9823;SDS011;4951;50.778;7.196;2022-09-29T04:19:24;8.33;;;7.53;;
9823;SDS011;4951;50.778;7.196;2022-09-29T04:21:51;8.20;;;7.40;;
9823;SDS011;4951;50.778;7.196;2022-09-29T04:24:18;11.47;;;8.40;;
9823;SDS011;4951;50.778;7.196;2022-09-29T04:26:45;9.37;;;7.10;;
9823;SDS011;4951;50.778;7.196;2022-09-29T04:29:12;8.03;;;7.23;;
9823;SDS011;4951;50.778;7.196;2022-09-29T04:31:40;7.27;;;6.40;;
9823;SDS011;4951;50.778;7.196;2022-09-29T04:34:08;10.20;;;8.83;;
9823;SDS011;4951;50.778;7.196;2022-09-29T04:36:38;10.07;;;8.40;;
9823;SDS011;4951;50.778;7.196;2022-09-29T04:39:06;7.20;;;6.50;;
9823;SDS011;4951;50.778;7.196;2022-09-29T04:41:33;12.80;;;9.00;;
9823;SDS011;4951;50.778;7.196;2022-09-29T04:44:03;9.40;;;8.37;;
9823;SDS011;4951;50.778;7.196;2022-09-29T04:46:32;9.00;;;8.07;;
9823;SDS011;4951;50.778;7.196;2022-09-29T04:49:03;10.23;;;9.13;;
9823;SDS011;4951;50.778;7.196;2022-09-29T04:51:45;8.77;;;6.90;;
9823;SDS011;4951;50.778;7.196;2022-09-29T04:54:13;6.27;;;5.67;;
9823;SDS011;4951;50.778;7.196;2022-09-29T04:56:54;7.07;;;6.43;;
9823;SDS011;4951;50.778;7.196;2022-09-29T04:59:36;11.03;;;9.50;;
9823;SDS011;4951;50.778;7.196;2022-09-29T05:02:07;7.67;;;6.87;;
9823;SDS011;4951;50.778;7.196;2022-09-29T05:04:45;8.77;;;7.37;;
9823;SDS011;4951;50.778;7.196;2022-09-29T05:07:14;9.57;;;8.53;;
9823;SDS011;4951;50.778;7.196;2022-09-29T05:09:42;7.80;;;6.70;;
9823;SDS011;4951;50.778;7.196;2022-09-29T05:12:10;9.80;;;8.80;;
9823;SDS011;4951;50.778;7.196;2022-09-29T05:14:39;9.93;;;7.70;;
9823;SDS011;4951;50.778;7.196;2022-09-29T05:17:10;9.60;;;8.60;;
9823;SDS011;4951;50.778;7.196;2022-09-29T05:19:38;8.73;;;7.83;;
9823;SDS011;4951;50.778;7.196;2022-09-29T05:22:05;7.97;;;6.80;;
9823;SDS011;4951;50.778;7.196;2022-09-29T05:24:34;10.83;;;8.77;;
9823;SDS011;4951;50.778;7.196;2022-09-29T05:27:01;11.87;;;9.20;;
9823;SDS011;4951;50.778;7.196;2022-09-29T05:29:31;12.33;;;9.67;;
9823;SDS011;4951;50.778;7.196;2022-09-29T05:31:59;11.67;;;9.00;;
9823;SDS011;4951;50.778;7.196;2022-09-29T05:34:29;7.37;;;6.67;;
9823;SDS011;4951;50.778;7.196;2022-09-29T05:36:57;9.50;;;8.13;;
9823;SDS011;4951;50.778;7.196;2022-09-29T05:39:25;10.03;;;9.03;;
9823;SDS011;4951;50.778;7.196;2022-09-29T05:42:00;8.43;;;7.33;;
9823;SDS011;4951;50.778;7.196;2022-09-29T05:44:34;7.47;;;6.77;;
9823;SDS011;4951;50.778;7.196;2022-09-29T05:47:01;9.37;;;7.53;;
9823;SDS011;4951;50.778;7.196;2022-09-29T05:49:28;7.37;;;6.60;;
9823;SDS011;4951;50.778;7.196;2022-09-29T05:51:57;8.33;;;7.47;;
9823;SDS011;4951;50.778;7.196;2022-09-29T05:54:27;9.77;;;7.27;;
9823;SDS011;4951;50.778;7.196;2022-09-29T05:57:01;8.67;;;7.57;;
9823;SDS011;4951;50.778;7.196;2022-09-29T05:59:28;9.47;;;8.37;;
9823;SDS011;4951;50.778;7.196;2022-09-29T06:01:56;10.27;;;9.07;;
9823;SDS011;4951;50.778;7.196;2022-09-29T06:04:27;9.97;;;8.23;;
9823;SDS011;4951;50.778;7.196;2022-09-29T06:06:54;15.17;;;9.30;;
9823;SDS011;4951;50.778;7.196;2022-09-29T06:09:22;9.63;;;8.00;;
9823;SDS011;4951;50.778;7.196;2022-09-29T06:11:57;13.40;;;8.50;;
9823;SDS011;4951;50.778;7.196;2022-09-29T06:14:25;8.37;;;7.50;;
9823;SDS011;4951;50.778;7.196;2022-09-29T06:16:58;11.33;;;9.57;;
9823;SDS011;4951;50.778;7.196;2022-09-29T06:19:42;9.57;;;8.23;;
9823;SDS011;4951;50.778;7.196;2022-09-29T06:22:11;9.10;;;8.20;;
9823;SDS011;4951;50.778;7.196;2022-09-29T06:24:38;11.83;;;8.80;;
9823;SDS011;4951;50.778;7.196;2022-09-29T06:27:06;8.93;;;7.73;;
9823;SDS011;4951;50.778;7.196;2022-09-29T06:29:36;9.70;;;8.23;;
9823;SDS011;4951;50.778;7.196;2022-09-29T06:32:24;8.33;;;7.50;;
9823;SDS011;4951;50.778;7.196;2022-09-29T06:34:52;9.40;;;8.40;;
9823;SDS011;4951;50.778;7.196;2022-09-29T06:37:37;8.93;;;8.03;;
9823;SDS011;4951;50.778;7.196;2022-09-29T06:40:10;7.73;;;6.80;;
9823;SDS011;4951;50.778;7.196;2022-09-29T06:42:39;13.27;;;8.23;;
9823;SDS011;4951;50.778;7.196;2022-09-29T06:45:08;10.10;;;8.40;;
9823;SDS011;4951;50.778;7.196;2022-09-29T06:47:40;8.57;;;7.60;;
9823;SDS011;4951;50.778;7.196;2022-09-29T06:50:07;9.07;;;7.90;;
9823;SDS011;4951;50.778;7.196;2022-09-29T06:52:35;10.73;;;8.10;;
9823;SDS011;4951;50.778;7.196;2022-09-29T06:55:12;10.60;;;8.40;;
9823;SDS011;4951;50.778;7.196;2022-09-29T06:57:40;10.17;;;7.67;;
9823;SDS011;4951;50.778;7.196;2022-09-29T07:00:16;8.83;;;7.90;;
9823;SDS011;4951;50.778;7.196;2022-09-29T07:02:44;8.53;;;7.70;;
9823;SDS011;4951;50.778;7.196;2022-09-29T07:05:12;8.10;;;7.30;;
9823;SDS011;4951;50.778;7.196;2022-09-29T07:07:40;7.57;;;6.87;;
9823;SDS011;4951;50.778;7.196;2022-09-29T07:10:11;8.90;;;8.00;;
9823;SDS011;4951;50.778;7.196;2022-09-29T07:12:39;8.07;;;6.67;;
9823;SDS011;4951;50.778;7.196;2022-09-29T07:15:09;11.10;;;8.63;;
9823;SDS011;4951;50.778;7.196;2022-09-29T07:17:37;10.20;;;8.90;;
9823;SDS011;4951;50.778;7.196;2022-09-29T07:20:06;8.87;;;7.87;;
9823;SDS011;4951;50.778;7.196;2022-09-29T07:22:34;8.07;;;7.17;;
9823;SDS011;4951;50.778;7.196;2022-09-29T07:25:01;7.97;;;7.17;;
9823;SDS011;4951;50.778;7.196;2022-09-29T07:27:28;8.43;;;7.63;;
9823;SDS011;4951;50.778;7.196;2022-09-29T07:29:59;9.80;;;6.70;;
9823;SDS011;4951;50.778;7.196;2022-09-29T07:32:39;9.50;;;6.43;;
9823;SDS011;4951;50.778;7.196;2022-09-29T07:35:06;7.23;;;6.37;;
9823;SDS011;4951;50.778;7.196;2022-09-29T07:37:34;10.93;;;7.93;;
9823;SDS011;4951;50.778;7.196;2022-09-29T07:40:27;10.50;;;7.90;;
9823;SDS011;4951;50.778;7.196;2022-09-29T07:43:08;12.73;;;8.60;;
9823;SDS011;4951;50.778;7.196;2022-09-29T07:45:45;8.47;;;7.67;;
9823;SDS011;4951;50.778;7.196;2022-09-29T07:48:15;8.27;;;7.10;;
9823;SDS011;4951;50.778;7.196;2022-09-29T07:50:56;8.10;;;7.30;;
9823;SDS011;4951;50.778;7.196;2022-09-29T07:53:28;7.80;;;7.00;;
9823;SDS011;4951;50.778;7.196;2022-09-29T07:55:56;8.77;;;7.97;;
9823;SDS011;4951;50.778;7.196;2022-09-29T07:58:35;8.13;;;7.33;;
9823;SDS011;4951;50.778;7.196;2022-09-29T08:01:03;8.43;;;7.63;;
9823;SDS011;4951;50.778;7.196;2022-09-29T08:03:54;8.47;;;7.43;;
9823;SDS011;4951;50.778;7.196;2022-09-29T08:06:23;7.17;;;6.57;;
9823;SDS011;4951;50.778;7.196;2022-09-29T08:08:59;5.90;;;5.40;;
9823;SDS011;4951;50.778;7.196;2022-09-29T08:11:27;7.40;;;6.70;;
9823;SDS011;4951;50.778;7.196;2022-09-29T08:13:57;8.50;;;7.70;;
9823;SDS011;4951;50.778;7.196;2022-09-29T08:16:25;7.97;;;7.27;;
9823;SDS011;4951;50.778;7.196;2022-09-29T08:19:05;6.57;;;5.97;;
9823;SDS011;4951;50.778;7.196;2022-09-29T08:21:34;8.03;;;7.23;;
9823;SDS011;4951;50.778;7.196;2022-09-29T08:24:02;7.13;;;6.50;;
9823;SDS011;4951;50.778;7.196;2022-09-29T08:26:32;6.57;;;6.00;;
9823;SDS011;4951;50.778;7.196;2022-09-29T08:29:04;7.90;;;7.20;;
9823;SDS011;4951;50.778;7.196;2022-09-29T08:31:35;5.77;;;5.20;;
9823;SDS011;4951;50.778;7.196;2022-09-29T08:34:05;7.07;;;6.47;;
9823;SDS011;4951;50.778;7.196;2022-09-29T08:36:40;7.23;;;6.63;;
9823;SDS011;4951;50.778;7.196;2022-09-29T08:39:08;5.83;;;5.33;;
9823;SDS011;4951;50.778;7.196;2022-09-29T08:41:45;5.83;;;5.33;;
9823;SDS011;4951;50.778;7.196;2022-09-29T08:44:18;6.97;;;6.27;;
9823;SDS011;4951;50.778;7.196;2022-09-29T08:46:50;6.87;;;6.27;;
9823;SDS011;4951;50.778;7.196;2022-09-29T08:49:31;6.23;;;5.73;;
9823;SDS011;4951;50.778;7.196;2022-09-29T08:52:09;7.10;;;6.50;;
9823;SDS011;4951;50.778;7.196;2022-09-29T08:54:39;7.40;;;6.70;;
9823;SDS011;4951;50.778;7.196;2022-09-29T08:57:12;7.40;;;6.37;;
9823;SDS011;4951;50.778;7.196;2022-09-29T08:59:47;6.50;;;5.90;;
9823;SDS011;4951;50.778;7.196;2022-09-29T09:02:33;6.40;;;5.67;;
9823;SDS011;4951;50.778;7.196;2022-09-29T09:08:37;6.27;;;5.77;;
9823;SDS011;4951;50.778;7.196;2022-09-29T09:11:19;7.90;;;7.10;;
9823;SDS011;4951;50.778;7.196;2022-09-29T09:14:12;7.00;;;6.07;;
9823;SDS011;4951;50.778;7.196;2022-09-29T09:16:59;8.77;;;6.70;;
9823;SDS011;4951;50.778;7.196;2022-09-29T09:19:38;7.93;;;7.13;;
9823;SDS011;4951;50.778;7.196;2022-09-29T09:22:26;7.97;;;6.77;;
9823;SDS011;4951;50.778;7.196;2022-09-29T09:25:10;5.93;;;5.43;;
9823;SDS011;4951;50.778;7.196;2022-09-29T09:27:46;6.30;;;5.70;;
9823;SDS011;4951;50.778;7.196;2022-09-29T09:30:22;5.80;;;5.30;;
9823;SDS011;4951;50.778;7.196;2022-09-29T09:32:55;6.20;;;5.60;;
9823;SDS011;4951;50.778;7.196;2022-09-29T09:35:29;7.77;;;5.93;;
9823;SDS011;4951;50.778;7.196;2022-09-29T09:38:22;6.23;;;5.63;;
9823;SDS011;4951;50.778;7.196;2022-09-29T09:41:02;5.00;;;4.60;;
9823;SDS011;4951;50.778;7.196;2022-09-29T09:43:33;6.77;;;6.07;;
9823;SDS011;4951;50.778;7.196;2022-09-29T09:46:11;9.60;;;6.83;;
9823;SDS011;4951;50.778;7.196;2022-09-29T09:48:45;7.77;;;6.30;;
9823;SDS011;4951;50.778;7.196;2022-09-29T09:51:29;7.20;;;6.57;;
9823;SDS011;4951;50.778;7.196;2022-09-29T09:54:05;5.83;;;5.33;;
9823;SDS011;4951;50.778;7.196;2022-09-29T09:56:47;7.00;;;6.40;;
9823;SDS011;4951;50.778;7.196;2022-09-29T09:59:39;5.93;;;5.43;;
9823;SDS011;4951;50.778;7.196;2022-09-29T10:02:17;5.87;;;5.27;;
9823;SDS011;4951;50.778;7.196;2022-09-29T10:04:58;6.10;;;5.17;;
9823;SDS011;4951;50.778;7.196;2022-09-29T10:07:37;6.30;;;5.70;;
9823;SDS011;4951;50.778;7.196;2022-09-29T10:10:25;6.70;;;6.07;;
9823;SDS011;4951;50.778;7.196;2022-09-29T10:12:57;5.63;;;5.13;;
9823;SDS011;4951;50.778;7.196;2022-09-29T10:15:29;5.73;;;5.07;;
9823;SDS011;4951;50.778;7.196;2022-09-29T10:18:02;6.23;;;5.63;;
9823;SDS011;4951;50.778;7.196;2022-09-29T10:20:44;6.40;;;4.53;;
9823;SDS011;4951;50.778;7.196;2022-09-29T10:23:26;6.20;;;5.00;;
9823;SDS011;4951;50.778;7.196;2022-09-29T10:26:00;6.13;;;5.53;;
9823;SDS011;4951;50.778;7.196;2022-09-29T10:28:42;5.27;;;4.77;;
9823;SDS011;4951;50.778;7.196;2022-09-29T10:31:23;9.53;;;5.87;;
9823;SDS011;4951;50.778;7.196;2022-09-29T10:33:56;6.83;;;5.73;;
9823;SDS011;4951;50.778;7.196;2022-09-29T10:36:28;5.87;;;5.00;;
9823;SDS011;4951;50.778;7.196;2022-09-29T10:39:08;8.07;;;4.70;;
9823;SDS011;4951;50.778;7.196;2022-09-29T10:41:58;5.47;;;4.70;;
9823;SDS011;4951;50.778;7.196;2022-09-29T10:44:29;6.53;;;5.07;;
9823;SDS011;4951;50.778;7.196;2022-09-29T10:46:58;5.17;;;4.47;;
9823;SDS011;4951;50.778;7.196;2022-09-29T10:49:36;5.50;;;4.10;;
9823;SDS011;4951;50.778;7.196;2022-09-29T10:52:04;5.67;;;4.40;;
9823;SDS011;4951;50.778;7.196;2022-09-29T10:54:53;5.67;;;4.03;;
9823;SDS011;4951;50.778;7.196;2022-09-29T10:57:38;5.70;;;4.30;;
9823;SDS011;4951;50.778;7.196;2022-09-29T11:00:22;8.57;;;3.93;;
9823;SDS011;4951;50.778;7.196;2022-09-29T11:02:59;6.37;;;3.80;;
9823;SDS011;4951;50.778;7.196;2022-09-29T11:05:46;5.47;;;3.70;;
9823;SDS011;4951;50.778;7.196;2022-09-29T11:08:24;6.20;;;4.30;;
9823;SDS011;4951;50.778;7.196;2022-09-29T11:11:02;5.37;;;4.07;;
9823;SDS011;4951;50.778;7.196;2022-09-29T11:13:37;5.30;;;4.03;;
9823;SDS011;4951;50.778;7.196;2022-09-29T11:16:11;6.03;;;3.80;;
9823;SDS011;4951;50.778;7.196;2022-09-29T11:18:41;4.90;;;3.97;;
9823;SDS011;4951;50.778;7.196;2022-09-29T11:21:30;5.93;;;3.50;;
9823;SDS011;4951;50.778;7.196;2022-09-29T11:24:24;5.40;;;3.37;;
9823;SDS011;4951;50.778;7.196;2022-09-29T11:27:09;4.83;;;3.60;;
9823;SDS011;4951;50.778;7.196;2022-09-29T11:29:46;4.07;;;2.90;;
9823;SDS011;4951;50.778;7.196;2022-09-29T11:32:25;3.30;;;3.00;;
9823;SDS011;4951;50.778;7.196;2022-09-29T11:35:05;4.30;;;2.90;;
9823;SDS011;4951;50.778;7.196;2022-09-29T11:37:45;2.93;;;2.60;;
9823;SDS011;4951;50.778;7.196;2022-09-29T11:40:27;3.90;;;2.40;;
9823;SDS011;4951;50.778;7.196;2022-09-29T11:43:09;3.87;;;2.57;;
9823;SDS011;4951;50.778;7.196;2022-09-29T11:45:54;5.20;;;2.43;;
9823;SDS011;4951;50.778;7.196;2022-09-29T11:48:39;2.77;;;2.57;;
9823;SDS011;4951;50.778;7.196;2022-09-29T11:51:20;2.90;;;2.60;;
9823;SDS011;4951;50.778;7.196;2022-09-29T11:54:12;5.50;;;3.10;;
9823;SDS011;4951;50.778;7.196;2022-09-29T11:56:52;4.73;;;2.60;;
9823;SDS011;4951;50.778;7.196;2022-09-29T11:59:32;2.67;;;2.27;;
9823;SDS011;4951;50.778;7.196;2022-09-29T12:05:21;2.80;;;1.93;;
9823;SDS011;4951;50.778;7.196;2022-09-29T12:07:57;4.53;;;1.90;;
9823;SDS011;4951;50.778;7.196;2022-09-29T12:10:39;2.57;;;2.00;;
9823;SDS011;4951;50.778;7.196;2022-09-29T12:13:18;3.97;;;2.00;;
9823;SDS011;4951;50.778;7.196;2022-09-29T12:15:52;2.10;;;1.90;;
9823;SDS011;4951;50.778;7.196;2022-09-29T12:18:24;2.33;;;2.13;;
9823;SDS011;4951;50.778;7.196;2022-09-29T12:20:56;3.60;;;2.10;;
9823;SDS011;4951;50.778;7.196;2022-09-29T12:23:26;4.17;;;2.07;;
9823;SDS011;4951;50.778;7.196;2022-09-29T12:25:58;3.77;;;2.10;;
9823;SDS011;4951;50.778;7.196;2022-09-29T12:28:34;2.00;;;1.70;;
9823;SDS011;4951;50.778;7.196;2022-09-29T12:31:09;3.97;;;1.83;;
9823;SDS011;4951;50.778;7.196;2022-09-29T12:33:42;3.13;;;1.70;;
9823;SDS011;4951;50.778;7.196;2022-09-29T12:40:12;2.60;;;1.73;;
9823;SDS011;4951;50.778;7.196;2022-09-29T12:43:04;2.77;;;1.90;;
9823;SDS011;4951;50.778;7.196;2022-09-29T12:45:48;4.30;;;1.90;;
9823;SDS011;4951;50.778;7.196;2022-09-29T12:48:30;3.63;;;2.00;;
9823;SDS011;4951;50.778;7.196;2022-09-29T12:51:11;1.60;;;1.50;;
9823;SDS011;4951;50.778;7.196;2022-09-29T12:53:50;3.83;;;1.70;;
9823;SDS011;4951;50.778;7.196;2022-09-29T12:56:29;6.63;;;1.97;;
9823;SDS011;4951;50.778;7.196;2022-09-29T12:59:04;4.07;;;1.40;;
9823;SDS011;4951;50.778;7.196;2022-09-29T13:01:38;2.87;;;1.90;;
9823;SDS011;4951;50.778;7.196;2022-09-29T13:04:27;3.70;;;1.87;;
9823;SDS011;4951;50.778;7.196;2022-09-29T13:07:31;4.10;;;1.70;;
9823;SDS011;4951;50.778;7.196;2022-09-29T13:10:32;2.83;;;1.77;;
9823;SDS011;4951;50.778;7.196;2022-09-29T13:16:30;4.20;;;1.90;;
9823;SDS011;4951;50.778;7.196;2022-09-29T13:19:18;2.67;;;1.80;;
9823;SDS011;4951;50.778;7.196;2022-09-29T13:22:31;2.57;;;1.90;;
9823;SDS011;4951;50.778;7.196;2022-09-29T13:25:25;2.23;;;1.93;;
9823;SDS011;4951;50.778;7.196;2022-09-29T13:28:10;2.43;;;1.60;;
9823;SDS011;4951;50.778;7.196;2022-09-29T13:30:48;1.50;;;1.35;;
9823;SDS011;4951;50.778;7.196;2022-09-29T13:33:17;2.63;;;1.88;;
9823;SDS011;4951;50.778;7.196;2022-09-29T13:35:55;2.58;;;1.75;;
9823;SDS011;4951;50.778;7.196;2022-09-29T13:38:25;2.88;;;1.58;;
9823;SDS011;4951;50.778;7.196;2022-09-29T13:41:12;3.25;;;1.63;;
9823;SDS011;4951;50.778;7.196;2022-09-29T13:46:36;3.53;;;1.73;;
9823;SDS011;4951;50.778;7.196;2022-09-29T13:49:15;2.00;;;1.50;;
9823;SDS011;4951;50.778;7.196;2022-09-29T13:51:53;3.42;;;1.33;;
9823;SDS011;4951;50.778;7.196;2022-09-29T13:54:23;1.30;;;1.20;;
9823;SDS011;4951;50.778;7.196;2022-09-29T13:57:18;1.98;;;1.30;;
9823;SDS011;4951;50.778;7.196;2022-09-29T14:06:04;2.00;;;1.60;;
9823;SDS011;4951;50.778;7.196;2022-09-29T14:08:37;2.65;;;1.65;;
9823;SDS011;4951;50.778;7.196;2022-09-29T14:11:14;7.80;;;3.30;;
9823;SDS011;4951;50.778;7.196;2022-09-29T14:13:54;3.33;;;1.85;;
9823;SDS011;4951;50.778;7.196;2022-09-29T14:16:48;1.77;;;1.60;;
9823;SDS011;4951;50.778;7.196;2022-09-29T14:19:36;3.35;;;1.40;;
9823;SDS011;4951;50.778;7.196;2022-09-29T14:28:27;3.08;;;1.40;;
9823;SDS011;4951;50.778;7.196;2022-09-29T14:31:20;3.90;;;2.15;;
9823;SDS011;4951;50.778;7.196;2022-09-29T14:33:50;2.90;;;1.42;;
9823;SDS011;4951;50.778;7.196;2022-09-29T14:36:19;3.50;;;1.98;;
9823;SDS011;4951;50.778;7.196;2022-09-29T14:38:50;4.15;;;2.00;;
9823;SDS011;4951;50.778;7.196;2022-09-29T14:41:24;2.75;;;1.60;;
9823;SDS011;4951;50.778;7.196;2022-09-29T14:43:56;1.95;;;1.40;;
9823;SDS011;4951;50.778;7.196;2022-09-29T14:56:12;1.95;;;1.20;;
9823;SDS011;4951;50.778;7.196;2022-09-29T14:58:51;1.75;;;1.30;;
9823;SDS011;4951;50.778;7.196;2022-09-29T15:01:28;2.58;;;1.35;;
9823;SDS011;4951;50.778;7.196;2022-09-29T15:04:06;3.63;;;1.27;;
9823;SDS011;4951;50.778;7.196;2022-09-29T15:06:44;2.15;;;1.50;;
9823;SDS011;4951;50.778;7.196;2022-09-29T15:09:23;3.03;;;1.33;;
9823;SDS011;4951;50.778;7.196;2022-09-29T15:12:12;2.70;;;1.65;;
9823;SDS011;4951;50.778;7.196;2022-09-29T15:14:56;2.03;;;1.30;;
9823;SDS011;4951;50.778;7.196;2022-09-29T15:17:28;1.40;;;1.30;;
9823;SDS011;4951;50.778;7.196;2022-09-29T15:20:14;1.58;;;1.30;;
9823;SDS011;4951;50.778;7.196;2022-09-29T15:23:08;2.03;;;1.42;;
9823;SDS011;4951;50.778;7.196;2022-09-29T15:25:52;1.83;;;1.30;;
9823;SDS011;4951;50.778;7.196;2022-09-29T15:28:24;2.17;;;1.30;;
9823;SDS011;4951;50.778;7.196;2022-09-29T15:30:58;1.40;;;1.30;;
9823;SDS011;4951;50.778;7.196;2022-09-29T15:33:29;2.13;;;1.10;;
9823;SDS011;4951;50.778;7.196;2022-09-29T15:36:00;2.57;;;1.40;;
9823;SDS011;4951;50.778;7.196;2022-09-29T15:38:33;2.27;;;1.30;;
9823;SDS011;4951;50.778;7.196;2022-09-29T15:43:52;2.47;;;1.30;;
9823;SDS011;4951;50.778;7.196;2022-09-29T15:46:36;2.37;;;1.20;;
9823;SDS011;4951;50.778;7.196;2022-09-29T15:51:53;3.57;;;1.20;;
9823;SDS011;4951;50.778;7.196;2022-09-29T15:54:28;3.03;;;1.03;;
9823;SDS011;4951;50.778;7.196;2022-09-29T15:56:58;1.20;;;0.90;;
9823;SDS011;4951;50.778;7.196;2022-09-29T15:59:46;1.20;;;1.10;;
9823;SDS011;4951;50.778;7.196;2022-09-29T16:02:25;1.47;;;1.10;;
9823;SDS011;4951;50.778;7.196;2022-09-29T16:04:57;1.83;;;1.53;;
9823;SDS011;4951;50.778;7.196;2022-09-29T16:07:31;1.40;;;1.30;;
9823;SDS011;4951;50.778;7.196;2022-09-29T16:10:05;1.80;;;1.50;;
9823;SDS011;4951;50.778;7.196;2022-09-29T16:12:44;2.87;;;1.77;;
9823;SDS011;4951;50.778;7.196;2022-09-29T16:15:15;2.13;;;1.53;;
9823;SDS011;4951;50.778;7.196;2022-09-29T16:17:47;1.80;;;1.70;;
9823;SDS011;4951;50.778;7.196;2022-09-29T16:20:17;2.17;;;1.60;;
9823;SDS011;4951;50.778;7.196;2022-09-29T16:22:52;1.43;;;1.33;;
9823;SDS011;4951;50.778;7.196;2022-09-29T16:25:26;1.50;;;1.27;;
9823;SDS011;4951;50.778;7.196;2022-09-29T16:28:00;3.77;;;1.40;;
9823;SDS011;4951;50.778;7.196;2022-09-29T16:30:32;2.60;;;1.40;;
9823;SDS011;4951;50.778;7.196;2022-09-29T16:33:11;2.37;;;1.40;;
9823;SDS011;4951;50.778;7.196;2022-09-29T16:35:59;1.50;;;1.40;;
9823;SDS011;4951;50.778;7.196;2022-09-29T16:38:41;1.70;;;1.40;;
9823;SDS011;4951;50.778;7.196;2022-09-29T16:41:14;1.83;;;1.40;;
9823;SDS011;4951;50.778;7.196;2022-09-29T16:44:11;1.60;;;1.50;;
9823;SDS011;4951;50.778;7.196;2022-09-29T16:46:45;2.57;;;1.20;;
9823;SDS011;4951;50.778;7.196;2022-09-29T16:49:23;6.97;;;2.10;;
9823;SDS011;4951;50.778;7.196;2022-09-29T16:52:31;4.57;;;2.27;;
9823;SDS011;4951;50.778;7.196;2022-09-29T16:55:28;6.23;;;2.13;;